sensor_id;sensor_type;location;lat;lon;timestamp;temperature;humidity
31575;DHT22;18182;1.328;103.810;2022-12-18T00:01:20;27.80;99.90
31575;DHT22;18182;1.328;103.810;2022-12-18T00:03:46;27.80;99.90
31575;DHT22;18182;1.328;103.810;2022-12-18T00:06:13;27.80;99.90
31575;DHT22;18182;1.328;103.810;2022-12-18T00:08:39;27.90;99.90
31575;DHT22;18182;1.328;103.810;2022-12-18T00:11:06;27.90;99.90
31575;DHT22;18182;1.328;103.810;2022-12-18T00:13:33;28.00;99.90
31575;DHT22;18182;1.328;103.810;2022-12-18T00:16:03;28.00;99.90
31575;DHT22;18182;1.328;103.810;2022-12-18T00:18:29;28.00;99.90
31575;DHT22;18182;1.328;103.810;2022-12-18T00:20:58;28.10;99.90
31575;DHT22;18182;1.328;103.810;2022-12-18T00:23:24;28.10;99.90
31575;DHT22;18182;1.328;103.810;2022-12-18T00:25:50;28.10;99.90
31575;DHT22;18182;1.328;103.810;2022-12-18T00:28:16;28.10;99.90
31575;DHT22;18182;1.328;103.810;2022-12-18T00:30:42;28.20;99.90
31575;DHT22;18182;1.328;103.810;2022-12-18T00:33:08;28.20;99.90
31575;DHT22;18182;1.328;103.810;2022-12-18T00:35:35;28.20;99.90
31575;DHT22;18182;1.328;103.810;2022-12-18T00:38:01;28.30;99.90
31575;DHT22;18182;1.328;103.810;2022-12-18T00:40:27;28.30;99.90
31575;DHT22;18182;1.328;103.810;2022-12-18T00:42:53;28.30;99.90
31575;DHT22;18182;1.328;103.810;2022-12-18T00:45:22;28.30;99.90
31575;DHT22;18182;1.328;103.810;2022-12-18T00:47:49;28.40;99.90
31575;DHT22;18182;1.328;103.810;2022-12-18T00:50:15;28.50;99.90
31575;DHT22;18182;1.328;103.810;2022-12-18T00:52:41;28.50;99.90
31575;DHT22;18182;1.328;103.810;2022-12-18T00:55:08;28.50;99.90
31575;DHT22;18182;1.328;103.810;2022-12-18T00:57:34;28.50;99.90
31575;DHT22;18182;1.328;103.810;2022-12-18T01:00:01;28.50;99.90
31575;DHT22;18182;1.328;103.810;2022-12-18T01:02:27;28.60;99.90
31575;DHT22;18182;1.328;103.810;2022-12-18T01:04:53;28.60;99.90
31575;DHT22;18182;1.328;103.810;2022-12-18T01:07:19;28.60;99.90
31575;DHT22;18182;1.328;103.810;2022-12-18T01:09:45;28.70;99.90
31575;DHT22;18182;1.328;103.810;2022-12-18T01:12:11;28.70;99.90
31575;DHT22;18182;1.328;103.810;2022-12-18T01:14:37;28.80;99.90
31575;DHT22;18182;1.328;103.810;2022-12-18T01:17:03;28.80;99.90
31575;DHT22;18182;1.328;103.810;2022-12-18T01:19:30;28.90;99.90
31575;DHT22;18182;1.328;103.810;2022-12-18T01:21:56;29.00;99.90
31575;DHT22;18182;1.328;103.810;2022-12-18T01:24:22;29.00;99.90
31575;DHT22;18182;1.328;103.810;2022-12-18T01:26:48;29.10;99.90
31575;DHT22;18182;1.328;103.810;2022-12-18T01:29:14;29.00;99.90
31575;DHT22;18182;1.328;103.810;2022-12-18T01:31:40;29.00;99.90
31575;DHT22;18182;1.328;103.810;2022-12-18T01:34:07;29.00;99.90
31575;DHT22;18182;1.328;103.810;2022-12-18T01:36:34;29.00;99.90
31575;DHT22;18182;1.328;103.810;2022-12-18T01:39:01;28.90;99.90
31575;DHT22;18182;1.328;103.810;2022-12-18T01:41:28;28.90;99.90
31575;DHT22;18182;1.328;103.810;2022-12-18T01:47:01;28.90;99.90
31575;DHT22;18182;1.328;103.810;2022-12-18T01:49:28;28.90;99.90
31575;DHT22;18182;1.328;103.810;2022-12-18T01:51:54;28.80;99.90
31575;DHT22;18182;1.328;103.810;2022-12-18T01:54:20;28.80;99.90
31575;DHT22;18182;1.328;103.810;2022-12-18T01:56:46;28.80;99.90
31575;DHT22;18182;1.328;103.810;2022-12-18T01:59:12;28.80;99.90
31575;DHT22;18182;1.328;103.810;2022-12-18T02:01:38;28.80;99.90
31575;DHT22;18182;1.328;103.810;2022-12-18T02:07:06;29.10;99.90
31575;DHT22;18182;1.328;103.810;2022-12-18T02:09:36;29.20;99.90
31575;DHT22;18182;1.328;103.810;2022-12-18T02:24:35;29.40;99.90
31575;DHT22;18182;1.328;103.810;2022-12-18T02:27:03;29.40;99.90
31575;DHT22;18182;1.328;103.810;2022-12-18T02:29:35;29.40;99.90
31575;DHT22;18182;1.328;103.810;2022-12-18T02:32:04;29.40;99.90
31575;DHT22;18182;1.328;103.810;2022-12-18T02:34:32;29.50;99.90
31575;DHT22;18182;1.328;103.810;2022-12-18T02:37:00;29.50;99.90
31575;DHT22;18182;1.328;103.810;2022-12-18T02:39:28;29.50;99.90
31575;DHT22;18182;1.328;103.810;2022-12-18T02:41:55;29.60;99.90
31575;DHT22;18182;1.328;103.810;2022-12-18T02:44:25;29.60;99.90
31575;DHT22;18182;1.328;103.810;2022-12-18T02:46:52;29.60;99.90
31575;DHT22;18182;1.328;103.810;2022-12-18T02:49:24;29.60;99.90
31575;DHT22;18182;1.328;103.810;2022-12-18T02:57:05;29.60;99.90
31575;DHT22;18182;1.328;103.810;2022-12-18T02:59:38;29.60;99.90
31575;DHT22;18182;1.328;103.810;2022-12-18T03:02:10;29.60;99.90
31575;DHT22;18182;1.328;103.810;2022-12-18T03:04:43;29.60;99.90
31575;DHT22;18182;1.328;103.810;2022-12-18T03:07:15;29.80;99.90
31575;DHT22;18182;1.328;103.810;2022-12-18T03:09:43;29.90;99.90
31575;DHT22;18182;1.328;103.810;2022-12-18T03:12:32;30.00;99.90
31575;DHT22;18182;1.328;103.810;2022-12-18T03:15:30;30.10;99.90
31575;DHT22;18182;1.328;103.810;2022-12-18T03:17:52;30.10;99.90
31575;DHT22;18182;1.328;103.810;2022-12-18T03:20:22;30.20;99.90
31575;DHT22;18182;1.328;103.810;2022-12-18T03:22:51;30.10;99.90
31575;DHT22;18182;1.328;103.810;2022-12-18T03:25:19;29.80;99.90
31575;DHT22;18182;1.328;103.810;2022-12-18T03:27:49;29.80;99.90
31575;DHT22;18182;1.328;103.810;2022-12-18T03:30:17;29.80;99.90
31575;DHT22;18182;1.328;103.810;2022-12-18T03:32:56;29.80;99.90
31575;DHT22;18182;1.328;103.810;2022-12-18T03:35:26;29.90;99.90
31575;DHT22;18182;1.328;103.810;2022-12-18T03:37:54;29.80;99.90
31575;DHT22;18182;1.328;103.810;2022-12-18T03:40:21;29.70;99.90
31575;DHT22;18182;1.328;103.810;2022-12-18T03:42:52;29.70;99.90
31575;DHT22;18182;1.328;103.810;2022-12-18T03:45:26;29.60;99.90
31575;DHT22;18182;1.328;103.810;2022-12-18T03:48:36;29.50;99.90
31575;DHT22;18182;1.328;103.810;2022-12-18T03:53:11;29.40;99.90
31575;DHT22;18182;1.328;103.810;2022-12-18T03:55:39;29.40;99.90
31575;DHT22;18182;1.328;103.810;2022-12-18T03:58:06;29.40;99.90
31575;DHT22;18182;1.328;103.810;2022-12-18T04:00:33;29.30;99.90
31575;DHT22;18182;1.328;103.810;2022-12-18T04:02:59;29.30;99.90
31575;DHT22;18182;1.328;103.810;2022-12-18T04:05:26;29.30;99.90
31575;DHT22;18182;1.328;103.810;2022-12-18T04:07:54;29.30;99.90
31575;DHT22;18182;1.328;103.810;2022-12-18T04:10:20;29.30;99.90
31575;DHT22;18182;1.328;103.810;2022-12-18T04:12:46;29.30;99.90
31575;DHT22;18182;1.328;103.810;2022-12-18T04:15:13;29.40;99.90
31575;DHT22;18182;1.328;103.810;2022-12-18T04:17:39;29.40;99.90
31575;DHT22;18182;1.328;103.810;2022-12-18T04:20:09;29.40;99.90
31575;DHT22;18182;1.328;103.810;2022-12-18T04:22:35;29.50;99.90
31575;DHT22;18182;1.328;103.810;2022-12-18T04:25:01;29.50;99.90
31575;DHT22;18182;1.328;103.810;2022-12-18T04:27:28;29.50;99.90
31575;DHT22;18182;1.328;103.810;2022-12-18T04:29:54;29.50;99.90
31575;DHT22;18182;1.328;103.810;2022-12-18T04:32:21;29.50;99.90
31575;DHT22;18182;1.328;103.810;2022-12-18T04:34:47;29.50;99.90
31575;DHT22;18182;1.328;103.810;2022-12-18T04:37:13;29.50;99.90
31575;DHT22;18182;1.328;103.810;2022-12-18T04:39:39;29.50;99.90
31575;DHT22;18182;1.328;103.810;2022-12-18T04:42:05;29.60;99.90
31575;DHT22;18182;1.328;103.810;2022-12-18T04:44:32;29.60;99.90
31575;DHT22;18182;1.328;103.810;2022-12-18T04:46:58;29.60;99.90
31575;DHT22;18182;1.328;103.810;2022-12-18T04:49:24;29.50;99.90
31575;DHT22;18182;1.328;103.810;2022-12-18T04:51:50;29.50;99.90
31575;DHT22;18182;1.328;103.810;2022-12-18T04:54:17;29.50;99.90
31575;DHT22;18182;1.328;103.810;2022-12-18T04:56:43;29.50;99.90
31575;DHT22;18182;1.328;103.810;2022-12-18T04:59:09;29.50;99.90
31575;DHT22;18182;1.328;103.810;2022-12-18T05:01:35;29.50;99.90
31575;DHT22;18182;1.328;103.810;2022-12-18T05:04:01;29.50;99.90
31575;DHT22;18182;1.328;103.810;2022-12-18T05:06:28;29.40;99.90
31575;DHT22;18182;1.328;103.810;2022-12-18T05:08:54;29.50;99.90
31575;DHT22;18182;1.328;103.810;2022-12-18T05:11:20;29.50;99.90
31575;DHT22;18182;1.328;103.810;2022-12-18T05:13:46;29.30;99.90
31575;DHT22;18182;1.328;103.810;2022-12-18T05:16:13;29.30;99.90
31575;DHT22;18182;1.328;103.810;2022-12-18T05:18:39;29.20;99.90
31575;DHT22;18182;1.328;103.810;2022-12-18T05:21:06;29.20;99.90
31575;DHT22;18182;1.328;103.810;2022-12-18T05:23:32;29.20;99.90
31575;DHT22;18182;1.328;103.810;2022-12-18T05:25:59;29.10;99.90
31575;DHT22;18182;1.328;103.810;2022-12-18T05:28:26;29.00;99.90
31575;DHT22;18182;1.328;103.810;2022-12-18T05:30:54;28.80;99.90
31575;DHT22;18182;1.328;103.810;2022-12-18T05:33:21;28.70;99.90
31575;DHT22;18182;1.328;103.810;2022-12-18T05:35:54;28.60;99.90
31575;DHT22;18182;1.328;103.810;2022-12-18T05:38:21;28.60;99.90
31575;DHT22;18182;1.328;103.810;2022-12-18T05:40:47;28.60;99.90
31575;DHT22;18182;1.328;103.810;2022-12-18T05:43:14;28.60;99.90
31575;DHT22;18182;1.328;103.810;2022-12-18T05:45:40;28.60;99.90
31575;DHT22;18182;1.328;103.810;2022-12-18T05:48:07;28.60;99.90
31575;DHT22;18182;1.328;103.810;2022-12-18T05:50:37;28.60;99.90
31575;DHT22;18182;1.328;103.810;2022-12-18T05:53:03;28.60;99.90
31575;DHT22;18182;1.328;103.810;2022-12-18T05:55:32;28.50;99.90
31575;DHT22;18182;1.328;103.810;2022-12-18T05:57:59;28.50;99.90
31575;DHT22;18182;1.328;103.810;2022-12-18T06:00:25;28.50;99.90
31575;DHT22;18182;1.328;103.810;2022-12-18T06:02:51;28.40;99.90
31575;DHT22;18182;1.328;103.810;2022-12-18T06:05:17;28.20;99.90
31575;DHT22;18182;1.328;103.810;2022-12-18T06:07:43;28.10;99.90
31575;DHT22;18182;1.328;103.810;2022-12-18T06:10:09;28.10;99.90
31575;DHT22;18182;1.328;103.810;2022-12-18T06:12:37;28.10;99.90
31575;DHT22;18182;1.328;103.810;2022-12-18T06:15:03;28.20;99.90
31575;DHT22;18182;1.328;103.810;2022-12-18T06:17:30;28.40;99.90
31575;DHT22;18182;1.328;103.810;2022-12-18T06:19:57;28.50;99.90
31575;DHT22;18182;1.328;103.810;2022-12-18T06:22:25;28.50;99.90
31575;DHT22;18182;1.328;103.810;2022-12-18T06:24:52;28.60;99.90
31575;DHT22;18182;1.328;103.810;2022-12-18T06:27:18;28.80;99.90
31575;DHT22;18182;1.328;103.810;2022-12-18T06:29:44;29.00;99.90
31575;DHT22;18182;1.328;103.810;2022-12-18T06:32:11;29.10;99.90
31575;DHT22;18182;1.328;103.810;2022-12-18T06:34:37;29.30;99.90
31575;DHT22;18182;1.328;103.810;2022-12-18T06:37:03;29.30;99.90
31575;DHT22;18182;1.328;103.810;2022-12-18T06:39:30;29.50;99.90
31575;DHT22;18182;1.328;103.810;2022-12-18T06:41:56;29.60;99.90
31575;DHT22;18182;1.328;103.810;2022-12-18T06:44:22;29.80;99.90
31575;DHT22;18182;1.328;103.810;2022-12-18T06:46:48;29.90;99.90
31575;DHT22;18182;1.328;103.810;2022-12-18T06:49:15;30.00;99.90
31575;DHT22;18182;1.328;103.810;2022-12-18T06:51:41;30.00;99.90
31575;DHT22;18182;1.328;103.810;2022-12-18T06:54:08;30.20;99.90
31575;DHT22;18182;1.328;103.810;2022-12-18T06:56:34;30.20;99.90
31575;DHT22;18182;1.328;103.810;2022-12-18T06:59:00;30.30;99.90
31575;DHT22;18182;1.328;103.810;2022-12-18T07:01:26;30.20;99.90
31575;DHT22;18182;1.328;103.810;2022-12-18T07:03:53;30.20;99.90
31575;DHT22;18182;1.328;103.810;2022-12-18T07:06:20;30.10;99.90
31575;DHT22;18182;1.328;103.810;2022-12-18T07:08:47;30.00;99.90
31575;DHT22;18182;1.328;103.810;2022-12-18T07:11:15;29.90;99.90
31575;DHT22;18182;1.328;103.810;2022-12-18T07:13:43;29.80;99.90
31575;DHT22;18182;1.328;103.810;2022-12-18T07:16:13;29.60;99.90
31575;DHT22;18182;1.328;103.810;2022-12-18T07:18:40;29.50;99.90
31575;DHT22;18182;1.328;103.810;2022-12-18T07:21:07;29.40;99.90
31575;DHT22;18182;1.328;103.810;2022-12-18T07:23:33;29.30;99.90
31575;DHT22;18182;1.328;103.810;2022-12-18T07:26:02;29.20;99.90
31575;DHT22;18182;1.328;103.810;2022-12-18T07:28:28;28.80;99.90
31575;DHT22;18182;1.328;103.810;2022-12-18T07:30:54;28.40;99.90
31575;DHT22;18182;1.328;103.810;2022-12-18T07:33:20;28.10;99.90
31575;DHT22;18182;1.328;103.810;2022-12-18T07:35:46;27.80;99.90
31575;DHT22;18182;1.328;103.810;2022-12-18T07:38:12;27.80;99.90
31575;DHT22;18182;1.328;103.810;2022-12-18T07:40:38;27.70;99.90
31575;DHT22;18182;1.328;103.810;2022-12-18T07:43:04;27.70;99.90
31575;DHT22;18182;1.328;103.810;2022-12-18T07:45:31;27.70;99.90
31575;DHT22;18182;1.328;103.810;2022-12-18T07:47:57;27.70;99.90
31575;DHT22;18182;1.328;103.810;2022-12-18T07:50:23;27.70;99.90
31575;DHT22;18182;1.328;103.810;2022-12-18T07:52:49;27.70;99.90
31575;DHT22;18182;1.328;103.810;2022-12-18T07:55:15;27.60;99.90
31575;DHT22;18182;1.328;103.810;2022-12-18T07:57:41;27.60;99.90
31575;DHT22;18182;1.328;103.810;2022-12-18T08:00:08;27.70;99.90
31575;DHT22;18182;1.328;103.810;2022-12-18T08:02:34;27.90;99.90
31575;DHT22;18182;1.328;103.810;2022-12-18T08:05:00;28.00;99.90
31575;DHT22;18182;1.328;103.810;2022-12-18T08:07:26;28.10;99.90
31575;DHT22;18182;1.328;103.810;2022-12-18T08:09:52;28.20;99.90
31575;DHT22;18182;1.328;103.810;2022-12-18T08:12:18;28.20;99.90
31575;DHT22;18182;1.328;103.810;2022-12-18T08:14:45;28.20;99.90
31575;DHT22;18182;1.328;103.810;2022-12-18T08:17:11;28.20;99.90
31575;DHT22;18182;1.328;103.810;2022-12-18T08:19:37;28.10;99.90
31575;DHT22;18182;1.328;103.810;2022-12-18T08:22:03;28.00;99.90
31575;DHT22;18182;1.328;103.810;2022-12-18T08:24:29;28.10;99.90
31575;DHT22;18182;1.328;103.810;2022-12-18T08:26:55;28.10;99.90
31575;DHT22;18182;1.328;103.810;2022-12-18T08:29:22;28.20;99.90
31575;DHT22;18182;1.328;103.810;2022-12-18T08:31:49;28.20;99.90
31575;DHT22;18182;1.328;103.810;2022-12-18T08:34:15;28.20;99.90
31575;DHT22;18182;1.328;103.810;2022-12-18T08:36:41;28.30;99.90
31575;DHT22;18182;1.328;103.810;2022-12-18T08:39:07;28.30;99.90
31575;DHT22;18182;1.328;103.810;2022-12-18T08:41:33;28.40;99.90
31575;DHT22;18182;1.328;103.810;2022-12-18T08:43:59;28.40;99.90
31575;DHT22;18182;1.328;103.810;2022-12-18T08:46:44;28.50;99.90
31575;DHT22;18182;1.328;103.810;2022-12-18T08:49:10;28.60;99.90
31575;DHT22;18182;1.328;103.810;2022-12-18T08:51:37;28.60;99.90
31575;DHT22;18182;1.328;103.810;2022-12-18T08:54:03;28.70;99.90
31575;DHT22;18182;1.328;103.810;2022-12-18T08:56:30;28.80;99.90
31575;DHT22;18182;1.328;103.810;2022-12-18T08:58:56;28.90;99.90
31575;DHT22;18182;1.328;103.810;2022-12-18T09:01:22;28.90;99.90
31575;DHT22;18182;1.328;103.810;2022-12-18T09:03:49;28.90;99.90
31575;DHT22;18182;1.328;103.810;2022-12-18T09:06:20;29.00;99.90
31575;DHT22;18182;1.328;103.810;2022-12-18T09:08:46;29.00;99.90
31575;DHT22;18182;1.328;103.810;2022-12-18T09:11:19;29.00;99.90
31575;DHT22;18182;1.328;103.810;2022-12-18T09:13:46;29.00;99.90
31575;DHT22;18182;1.328;103.810;2022-12-18T09:16:12;29.00;99.90
31575;DHT22;18182;1.328;103.810;2022-12-18T09:18:38;29.00;99.90
31575;DHT22;18182;1.328;103.810;2022-12-18T09:21:10;29.00;99.90
31575;DHT22;18182;1.328;103.810;2022-12-18T09:23:36;29.00;99.90
31575;DHT22;18182;1.328;103.810;2022-12-18T09:26:02;28.90;99.90
31575;DHT22;18182;1.328;103.810;2022-12-18T09:28:28;28.90;99.90
31575;DHT22;18182;1.328;103.810;2022-12-18T09:30:55;28.90;99.90
31575;DHT22;18182;1.328;103.810;2022-12-18T09:33:21;28.90;99.90
31575;DHT22;18182;1.328;103.810;2022-12-18T09:35:47;28.90;99.90
31575;DHT22;18182;1.328;103.810;2022-12-18T09:38:14;28.80;99.90
31575;DHT22;18182;1.328;103.810;2022-12-18T09:43:13;28.80;99.90
31575;DHT22;18182;1.328;103.810;2022-12-18T09:45:42;28.80;99.90
31575;DHT22;18182;1.328;103.810;2022-12-18T09:48:10;28.80;99.90
31575;DHT22;18182;1.328;103.810;2022-12-18T09:50:42;28.70;99.90
31575;DHT22;18182;1.328;103.810;2022-12-18T09:53:12;28.60;99.90
31575;DHT22;18182;1.328;103.810;2022-12-18T09:55:41;28.60;99.90
31575;DHT22;18182;1.328;103.810;2022-12-18T10:00:52;28.50;99.90
31575;DHT22;18182;1.328;103.810;2022-12-18T10:03:19;28.40;99.90
31575;DHT22;18182;1.328;103.810;2022-12-18T10:10:47;28.10;99.90
31575;DHT22;18182;1.328;103.810;2022-12-18T10:13:23;28.10;99.90
31575;DHT22;18182;1.328;103.810;2022-12-18T10:15:55;28.20;99.90
31575;DHT22;18182;1.328;103.810;2022-12-18T10:18:40;28.30;99.90
31575;DHT22;18182;1.328;103.810;2022-12-18T10:21:32;28.40;99.90
31575;DHT22;18182;1.328;103.810;2022-12-18T10:24:01;28.40;99.90
31575;DHT22;18182;1.328;103.810;2022-12-18T10:26:28;28.40;99.90
31575;DHT22;18182;1.328;103.810;2022-12-18T10:28:57;28.40;99.90
31575;DHT22;18182;1.328;103.810;2022-12-18T10:31:24;28.50;99.90
31575;DHT22;18182;1.328;103.810;2022-12-18T10:33:51;28.50;99.90
31575;DHT22;18182;1.328;103.810;2022-12-18T10:36:19;28.50;99.90
31575;DHT22;18182;1.328;103.810;2022-12-18T10:38:46;28.40;99.90
31575;DHT22;18182;1.328;103.810;2022-12-18T10:43:44;28.40;99.90
31575;DHT22;18182;1.328;103.810;2022-12-18T10:48:40;28.20;99.90
31575;DHT22;18182;1.328;103.810;2022-12-18T10:51:19;28.20;99.90
31575;DHT22;18182;1.328;103.810;2022-12-18T10:56:53;28.10;99.90
31575;DHT22;18182;1.328;103.810;2022-12-18T10:59:55;28.10;99.90
31575;DHT22;18182;1.328;103.810;2022-12-18T11:02:28;28.10;99.90
31575;DHT22;18182;1.328;103.810;2022-12-18T11:04:59;28.10;99.90
31575;DHT22;18182;1.328;103.810;2022-12-18T11:07:25;28.10;99.90
31575;DHT22;18182;1.328;103.810;2022-12-18T11:10:00;28.10;99.90
31575;DHT22;18182;1.328;103.810;2022-12-18T11:12:27;28.10;99.90
31575;DHT22;18182;1.328;103.810;2022-12-18T11:14:54;28.10;99.90
31575;DHT22;18182;1.328;103.810;2022-12-18T11:19:57;28.10;99.90
31575;DHT22;18182;1.328;103.810;2022-12-18T11:24:56;28.10;99.90
31575;DHT22;18182;1.328;103.810;2022-12-18T11:27:23;28.10;99.90
31575;DHT22;18182;1.328;103.810;2022-12-18T11:29:50;28.10;99.90
31575;DHT22;18182;1.328;103.810;2022-12-18T11:32:24;28.00;99.90
31575;DHT22;18182;1.328;103.810;2022-12-18T11:35:34;28.10;99.90
31575;DHT22;18182;1.328;103.810;2022-12-18T11:37:42;28.00;99.90
31575;DHT22;18182;1.328;103.810;2022-12-18T11:40:19;28.00;99.90
31575;DHT22;18182;1.328;103.810;2022-12-18T11:42:58;28.00;99.90
31575;DHT22;18182;1.328;103.810;2022-12-18T11:45:31;28.00;99.90
31575;DHT22;18182;1.328;103.810;2022-12-18T11:48:01;28.10;99.90
31575;DHT22;18182;1.328;103.810;2022-12-18T11:52:58;28.10;99.90
31575;DHT22;18182;1.328;103.810;2022-12-18T12:00:36;28.20;99.90
31575;DHT22;18182;1.328;103.810;2022-12-18T12:03:24;28.20;99.90
31575;DHT22;18182;1.328;103.810;2022-12-18T12:13:38;28.20;99.90
31575;DHT22;18182;1.328;103.810;2022-12-18T12:18:46;28.10;99.90
31575;DHT22;18182;1.328;103.810;2022-12-18T12:29:23;28.10;99.90
31575;DHT22;18182;1.328;103.810;2022-12-18T12:34:41;28.00;99.90
31575;DHT22;18182;1.328;103.810;2022-12-18T12:37:19;28.00;99.90
31575;DHT22;18182;1.328;103.810;2022-12-18T12:39:46;28.00;99.90
31575;DHT22;18182;1.328;103.810;2022-12-18T12:45:19;28.00;99.90
31575;DHT22;18182;1.328;103.810;2022-12-18T12:47:46;28.00;99.90
31575;DHT22;18182;1.328;103.810;2022-12-18T12:50:15;28.00;99.90
31575;DHT22;18182;1.328;103.810;2022-12-18T12:52:43;28.00;99.90
31575;DHT22;18182;1.328;103.810;2022-12-18T12:55:16;28.10;99.90
31575;DHT22;18182;1.328;103.810;2022-12-18T12:57:45;28.00;99.90
31575;DHT22;18182;1.328;103.810;2022-12-18T13:00:16;28.00;99.90
31575;DHT22;18182;1.328;103.810;2022-12-18T13:06:23;28.00;99.90
31575;DHT22;18182;1.328;103.810;2022-12-18T13:08:28;28.10;99.90
31575;DHT22;18182;1.328;103.810;2022-12-18T13:10:55;28.10;99.90
31575;DHT22;18182;1.328;103.810;2022-12-18T13:13:50;28.10;99.90
31575;DHT22;18182;1.328;103.810;2022-12-18T13:16:20;28.20;99.90
31575;DHT22;18182;1.328;103.810;2022-12-18T13:18:50;28.20;99.90
31575;DHT22;18182;1.328;103.810;2022-12-18T13:23:46;28.00;99.90
31575;DHT22;18182;1.328;103.810;2022-12-18T13:34:19;27.80;99.90
31575;DHT22;18182;1.328;103.810;2022-12-18T13:36:45;27.80;99.90
31575;DHT22;18182;1.328;103.810;2022-12-18T13:41:41;27.80;99.90
31575;DHT22;18182;1.328;103.810;2022-12-18T13:46:49;27.80;99.90
31575;DHT22;18182;1.328;103.810;2022-12-18T13:49:20;27.80;99.90
31575;DHT22;18182;1.328;103.810;2022-12-18T13:51:48;27.80;99.90
31575;DHT22;18182;1.328;103.810;2022-12-18T13:56:53;27.80;99.90
31575;DHT22;18182;1.328;103.810;2022-12-18T13:59:21;27.80;99.90
31575;DHT22;18182;1.328;103.810;2022-12-18T14:01:52;27.80;99.90
31575;DHT22;18182;1.328;103.810;2022-12-18T14:06:45;27.90;99.90
31575;DHT22;18182;1.328;103.810;2022-12-18T14:09:15;27.90;99.90
31575;DHT22;18182;1.328;103.810;2022-12-18T14:11:45;27.80;99.90
31575;DHT22;18182;1.328;103.810;2022-12-18T14:14:13;27.80;99.90
31575;DHT22;18182;1.328;103.810;2022-12-18T14:16:40;27.80;99.90
31575;DHT22;18182;1.328;103.810;2022-12-18T14:19:08;27.90;99.90
31575;DHT22;18182;1.328;103.810;2022-12-18T14:21:36;27.90;99.90
31575;DHT22;18182;1.328;103.810;2022-12-18T14:24:04;27.90;99.90
31575;DHT22;18182;1.328;103.810;2022-12-18T14:26:30;27.90;99.90
31575;DHT22;18182;1.328;103.810;2022-12-18T14:28:59;28.00;99.90
31575;DHT22;18182;1.328;103.810;2022-12-18T14:31:29;28.00;99.90
31575;DHT22;18182;1.328;103.810;2022-12-18T14:33:56;28.00;99.90
31575;DHT22;18182;1.328;103.810;2022-12-18T14:36:23;28.00;99.90
31575;DHT22;18182;1.328;103.810;2022-12-18T14:38:51;28.00;99.90
31575;DHT22;18182;1.328;103.810;2022-12-18T14:41:20;28.00;99.90
31575;DHT22;18182;1.328;103.810;2022-12-18T14:43:48;28.10;99.90
31575;DHT22;18182;1.328;103.810;2022-12-18T14:46:27;28.00;99.90
31575;DHT22;18182;1.328;103.810;2022-12-18T14:48:53;28.00;99.90
31575;DHT22;18182;1.328;103.810;2022-12-18T14:51:21;28.10;99.90
31575;DHT22;18182;1.328;103.810;2022-12-18T14:53:49;28.00;99.90
31575;DHT22;18182;1.328;103.810;2022-12-18T14:56:26;28.00;99.90
31575;DHT22;18182;1.328;103.810;2022-12-18T14:58:53;28.00;99.90
31575;DHT22;18182;1.328;103.810;2022-12-18T15:01:24;28.00;99.90
31575;DHT22;18182;1.328;103.810;2022-12-18T15:03:51;28.00;99.90
31575;DHT22;18182;1.328;103.810;2022-12-18T15:06:24;28.00;99.90
31575;DHT22;18182;1.328;103.810;2022-12-18T15:08:51;28.00;99.90
31575;DHT22;18182;1.328;103.810;2022-12-18T15:11:27;28.00;99.90
31575;DHT22;18182;1.328;103.810;2022-12-18T15:13:54;28.00;99.90
31575;DHT22;18182;1.328;103.810;2022-12-18T15:16:20;27.90;99.90
31575;DHT22;18182;1.328;103.810;2022-12-18T15:18:46;27.90;99.90
31575;DHT22;18182;1.328;103.810;2022-12-18T15:21:17;27.90;99.90
31575;DHT22;18182;1.328;103.810;2022-12-18T15:26:14;27.90;99.90
31575;DHT22;18182;1.328;103.810;2022-12-18T15:33:47;27.80;99.90
31575;DHT22;18182;1.328;103.810;2022-12-18T15:36:28;27.80;99.90
31575;DHT22;18182;1.328;103.810;2022-12-18T15:39:02;27.80;99.90
31575;DHT22;18182;1.328;103.810;2022-12-18T15:41:30;27.80;99.90
31575;DHT22;18182;1.328;103.810;2022-12-18T15:43:56;27.80;99.90
31575;DHT22;18182;1.328;103.810;2022-12-18T15:46:23;27.90;99.90
31575;DHT22;18182;1.328;103.810;2022-12-18T15:48:51;27.90;99.90
31575;DHT22;18182;1.328;103.810;2022-12-18T15:53:43;27.90;99.90
31575;DHT22;18182;1.328;103.810;2022-12-18T15:56:13;27.90;99.90
31575;DHT22;18182;1.328;103.810;2022-12-18T15:58:58;27.90;99.90
31575;DHT22;18182;1.328;103.810;2022-12-18T16:01:25;27.90;99.90
31575;DHT22;18182;1.328;103.810;2022-12-18T16:03:52;27.90;99.90
31575;DHT22;18182;1.328;103.810;2022-12-18T16:06:19;27.80;99.90
31575;DHT22;18182;1.328;103.810;2022-12-18T16:08:47;27.80;99.90
31575;DHT22;18182;1.328;103.810;2022-12-18T16:11:20;27.80;99.90
31575;DHT22;18182;1.328;103.810;2022-12-18T16:17:02;27.80;99.90
31575;DHT22;18182;1.328;103.810;2022-12-18T16:19:29;27.80;99.90
31575;DHT22;18182;1.328;103.810;2022-12-18T16:21:55;27.80;99.90
31575;DHT22;18182;1.328;103.810;2022-12-18T16:24:23;27.80;99.90
31575;DHT22;18182;1.328;103.810;2022-12-18T16:26:50;27.70;99.90
31575;DHT22;18182;1.328;103.810;2022-12-18T16:29:20;27.80;99.90
31575;DHT22;18182;1.328;103.810;2022-12-18T16:31:50;27.80;99.90
31575;DHT22;18182;1.328;103.810;2022-12-18T16:34:21;27.80;99.90
31575;DHT22;18182;1.328;103.810;2022-12-18T16:36:48;27.80;99.90
31575;DHT22;18182;1.328;103.810;2022-12-18T16:39:15;27.80;99.90
31575;DHT22;18182;1.328;103.810;2022-12-18T16:41:42;27.80;99.90
31575;DHT22;18182;1.328;103.810;2022-12-18T16:44:08;27.80;99.90
31575;DHT22;18182;1.328;103.810;2022-12-18T16:46:36;27.90;99.90
31575;DHT22;18182;1.328;103.810;2022-12-18T16:49:02;27.90;99.90
31575;DHT22;18182;1.328;103.810;2022-12-18T16:51:29;27.90;99.90
31575;DHT22;18182;1.328;103.810;2022-12-18T16:53:55;27.90;99.90
31575;DHT22;18182;1.328;103.810;2022-12-18T16:56:21;27.90;99.90
31575;DHT22;18182;1.328;103.810;2022-12-18T16:58:54;27.80;99.90
31575;DHT22;18182;1.328;103.810;2022-12-18T17:01:20;27.80;99.90
31575;DHT22;18182;1.328;103.810;2022-12-18T17:03:51;27.80;99.90
31575;DHT22;18182;1.328;103.810;2022-12-18T17:06:18;27.80;99.90
31575;DHT22;18182;1.328;103.810;2022-12-18T17:08:44;27.80;99.90
31575;DHT22;18182;1.328;103.810;2022-12-18T17:11:10;27.80;99.90
31575;DHT22;18182;1.328;103.810;2022-12-18T17:13:36;27.80;99.90
31575;DHT22;18182;1.328;103.810;2022-12-18T17:16:03;27.80;99.90
31575;DHT22;18182;1.328;103.810;2022-12-18T17:18:29;27.70;99.90
31575;DHT22;18182;1.328;103.810;2022-12-18T17:21:05;27.80;99.90